sensor_id;sensor_type;location;lat;lon;timestamp;P1;durP1;ratioP1;P2;durP2;ratioP2
28028;SDS011;15345;59.364;18.016;2022-09-20T00:00:03;1.30;;;1.20;;
28028;SDS011;15345;59.364;18.016;2022-09-20T00:01:27;2.40;;;1.05;;
28028;SDS011;15345;59.364;18.016;2022-09-20T00:02:47;1.23;;;1.13;;
28028;SDS011;15345;59.364;18.016;2022-09-20T00:04:05;2.38;;;1.20;;
28028;SDS011;15345;59.364;18.016;2022-09-20T00:05:25;1.80;;;1.20;;
28028;SDS011;15345;59.364;18.016;2022-09-20T00:06:44;2.83;;;1.30;;
28028;SDS011;15345;59.364;18.016;2022-09-20T00:08:03;2.83;;;1.10;;
28028;SDS011;15345;59.364;18.016;2022-09-20T00:09:22;1.33;;;1.20;;
28028;SDS011;15345;59.364;18.016;2022-09-20T00:10:42;1.40;;;1.30;;
28028;SDS011;15345;59.364;18.016;2022-09-20T00:12:01;1.40;;;1.30;;
28028;SDS011;15345;59.364;18.016;2022-09-20T00:13:20;1.20;;;1.10;;
28028;SDS011;15345;59.364;18.016;2022-09-20T00:14:39;1.17;;;1.08;;
28028;SDS011;15345;59.364;18.016;2022-09-20T00:15:57;2.03;;;1.10;;
28028;SDS011;15345;59.364;18.016;2022-09-20T00:17:16;2.25;;;1.10;;
28028;SDS011;15345;59.364;18.016;2022-09-20T00:18:35;1.35;;;1.10;;
28028;SDS011;15345;59.364;18.016;2022-09-20T00:19:54;1.98;;;1.33;;
28028;SDS011;15345;59.364;18.016;2022-09-20T00:21:14;1.80;;;1.10;;
28028;SDS011;15345;59.364;18.016;2022-09-20T00:22:33;1.38;;;0.90;;
28028;SDS011;15345;59.364;18.016;2022-09-20T00:23:52;1.27;;;1.10;;
28028;SDS011;15345;59.364;18.016;2022-09-20T00:25:11;1.38;;;1.17;;
28028;SDS011;15345;59.364;18.016;2022-09-20T00:26:31;3.42;;;1.95;;
28028;SDS011;15345;59.364;18.016;2022-09-20T00:27:49;1.05;;;1.05;;
28028;SDS011;15345;59.364;18.016;2022-09-20T00:29:08;1.40;;;1.25;;
28028;SDS011;15345;59.364;18.016;2022-09-20T00:30:27;2.03;;;1.20;;
28028;SDS011;15345;59.364;18.016;2022-09-20T00:31:47;2.60;;;1.23;;
28028;SDS011;15345;59.364;18.016;2022-09-20T00:33:06;1.52;;;1.23;;
28028;SDS011;15345;59.364;18.016;2022-09-20T00:34:24;1.98;;;1.30;;
28028;SDS011;15345;59.364;18.016;2022-09-20T00:36:02;1.13;;;1.02;;
28028;SDS011;15345;59.364;18.016;2022-09-20T00:37:21;3.70;;;1.25;;
28028;SDS011;15345;59.364;18.016;2022-09-20T00:38:40;2.20;;;1.10;;
28028;SDS011;15345;59.364;18.016;2022-09-20T00:40:00;1.08;;;0.80;;
28028;SDS011;15345;59.364;18.016;2022-09-20T00:41:19;1.48;;;1.10;;
28028;SDS011;15345;59.364;18.016;2022-09-20T00:42:38;1.17;;;1.00;;
28028;SDS011;15345;59.364;18.016;2022-09-20T00:43:57;1.08;;;0.93;;
28028;SDS011;15345;59.364;18.016;2022-09-20T00:45:20;2.97;;;0.98;;
28028;SDS011;15345;59.364;18.016;2022-09-20T00:46:41;0.85;;;0.85;;
28028;SDS011;15345;59.364;18.016;2022-09-20T00:48:05;1.02;;;1.02;;
28028;SDS011;15345;59.364;18.016;2022-09-20T00:49:30;5.28;;;1.20;;
28028;SDS011;15345;59.364;18.016;2022-09-20T00:51:00;1.48;;;1.00;;
28028;SDS011;15345;59.364;18.016;2022-09-20T00:52:22;1.30;;;1.20;;
28028;SDS011;15345;59.364;18.016;2022-09-20T00:53:43;1.17;;;1.15;;
28028;SDS011;15345;59.364;18.016;2022-09-20T00:55:04;1.13;;;1.10;;
28028;SDS011;15345;59.364;18.016;2022-09-20T00:56:26;1.15;;;1.00;;
28028;SDS011;15345;59.364;18.016;2022-09-20T00:57:46;1.75;;;0.90;;
28028;SDS011;15345;59.364;18.016;2022-09-20T00:59:15;1.27;;;0.93;;
28028;SDS011;15345;59.364;18.016;2022-09-20T01:00:34;1.30;;;1.00;;
28028;SDS011;15345;59.364;18.016;2022-09-20T01:01:58;2.10;;;1.17;;
28028;SDS011;15345;59.364;18.016;2022-09-20T01:03:20;1.95;;;0.93;;
28028;SDS011;15345;59.364;18.016;2022-09-20T01:04:41;2.35;;;1.42;;
28028;SDS011;15345;59.364;18.016;2022-09-20T01:06:00;3.08;;;1.00;;
28028;SDS011;15345;59.364;18.016;2022-09-20T01:07:21;1.00;;;1.00;;
28028;SDS011;15345;59.364;18.016;2022-09-20T01:08:41;2.05;;;1.00;;
28028;SDS011;15345;59.364;18.016;2022-09-20T01:10:02;0.80;;;0.80;;
28028;SDS011;15345;59.364;18.016;2022-09-20T01:11:21;3.47;;;0.95;;
28028;SDS011;15345;59.364;18.016;2022-09-20T01:12:40;2.78;;;1.02;;
28028;SDS011;15345;59.364;18.016;2022-09-20T01:14:00;2.88;;;1.40;;
28028;SDS011;15345;59.364;18.016;2022-09-20T01:15:19;2.95;;;0.88;;
28028;SDS011;15345;59.364;18.016;2022-09-20T01:16:39;0.80;;;0.80;;
28028;SDS011;15345;59.364;18.016;2022-09-20T01:17:58;2.38;;;1.10;;
28028;SDS011;15345;59.364;18.016;2022-09-20T01:20:56;2.08;;;0.90;;
28028;SDS011;15345;59.364;18.016;2022-09-20T01:22:25;3.70;;;0.90;;
28028;SDS011;15345;59.364;18.016;2022-09-20T01:26:51;1.08;;;0.98;;
28028;SDS011;15345;59.364;18.016;2022-09-20T01:28:13;1.90;;;0.65;;
28028;SDS011;15345;59.364;18.016;2022-09-20T01:31:33;3.92;;;0.60;;
28028;SDS011;15345;59.364;18.016;2022-09-20T01:33:01;1.15;;;1.02;;
28028;SDS011;15345;59.364;18.016;2022-09-20T01:34:32;0.52;;;0.52;;
28028;SDS011;15345;59.364;18.016;2022-09-20T01:35:51;1.90;;;0.88;;
28028;SDS011;15345;59.364;18.016;2022-09-20T01:37:13;2.50;;;0.75;;
28028;SDS011;15345;59.364;18.016;2022-09-20T01:41:32;2.22;;;0.70;;
28028;SDS011;15345;59.364;18.016;2022-09-20T01:45:52;1.48;;;0.80;;
28028;SDS011;15345;59.364;18.016;2022-09-20T01:47:21;0.60;;;0.60;;
28028;SDS011;15345;59.364;18.016;2022-09-20T01:48:45;0.95;;;0.70;;
28028;SDS011;15345;59.364;18.016;2022-09-20T01:56:10;2.58;;;0.52;;
28028;SDS011;15345;59.364;18.016;2022-09-20T02:01:31;2.00;;;0.47;;
28028;SDS011;15345;59.364;18.016;2022-09-20T02:02:33;0.65;;;0.55;;
28028;SDS011;15345;59.364;18.016;2022-09-20T02:04:04;0.57;;;0.57;;
28028;SDS011;15345;59.364;18.016;2022-09-20T02:07:16;0.50;;;0.50;;
28028;SDS011;15345;59.364;18.016;2022-09-20T02:10:05;0.82;;;0.63;;
28028;SDS011;15345;59.364;18.016;2022-09-20T02:13:03;6.20;;;0.70;;
28028;SDS011;15345;59.364;18.016;2022-09-20T02:14:29;0.73;;;0.60;;
28028;SDS011;15345;59.364;18.016;2022-09-20T02:17:17;1.25;;;0.50;;
28028;SDS011;15345;59.364;18.016;2022-09-20T02:20:18;1.52;;;0.57;;
28028;SDS011;15345;59.364;18.016;2022-09-20T02:21:43;0.65;;;0.38;;
28028;SDS011;15345;59.364;18.016;2022-09-20T02:29:30;0.47;;;0.47;;
28028;SDS011;15345;59.364;18.016;2022-09-20T02:30:54;0.93;;;0.50;;
28028;SDS011;15345;59.364;18.016;2022-09-20T02:32:22;1.05;;;0.52;;
28028;SDS011;15345;59.364;18.016;2022-09-20T02:38:20;2.53;;;0.70;;
28028;SDS011;15345;59.364;18.016;2022-09-20T02:40:15;1.45;;;0.50;;
28028;SDS011;15345;59.364;18.016;2022-09-20T02:43:13;0.80;;;0.50;;
28028;SDS011;15345;59.364;18.016;2022-09-20T02:45:17;1.80;;;0.73;;
28028;SDS011;15345;59.364;18.016;2022-09-20T02:46:17;0.98;;;0.77;;
28028;SDS011;15345;59.364;18.016;2022-09-20T02:47:40;0.88;;;0.57;;
28028;SDS011;15345;59.364;18.016;2022-09-20T02:49:02;0.60;;;0.50;;
28028;SDS011;15345;59.364;18.016;2022-09-20T02:52:01;2.03;;;0.93;;
28028;SDS011;15345;59.364;18.016;2022-09-20T02:53:41;2.15;;;0.60;;
28028;SDS011;15345;59.364;18.016;2022-09-20T02:55:17;1.30;;;0.70;;
28028;SDS011;15345;59.364;18.016;2022-09-20T02:56:49;0.70;;;0.70;;
28028;SDS011;15345;59.364;18.016;2022-09-20T02:59:37;2.05;;;0.80;;
28028;SDS011;15345;59.364;18.016;2022-09-20T03:01:03;1.10;;;0.93;;
28028;SDS011;15345;59.364;18.016;2022-09-20T03:09:49;1.33;;;0.77;;
28028;SDS011;15345;59.364;18.016;2022-09-20T03:14:14;3.05;;;0.80;;
28028;SDS011;15345;59.364;18.016;2022-09-20T03:15:43;0.70;;;0.70;;
28028;SDS011;15345;59.364;18.016;2022-09-20T03:20:54;1.25;;;0.80;;
28028;SDS011;15345;59.364;18.016;2022-09-20T03:23:09;3.35;;;1.05;;
28028;SDS011;15345;59.364;18.016;2022-09-20T03:24:35;1.00;;;0.88;;
28028;SDS011;15345;59.364;18.016;2022-09-20T03:26:11;1.08;;;0.95;;
28028;SDS011;15345;59.364;18.016;2022-09-20T03:27:38;2.33;;;1.10;;
28028;SDS011;15345;59.364;18.016;2022-09-20T03:30:55;2.63;;;1.05;;
28028;SDS011;15345;59.364;18.016;2022-09-20T03:33:43;1.38;;;1.27;;
28028;SDS011;15345;59.364;18.016;2022-09-20T03:41:08;1.52;;;1.00;;
28028;SDS011;15345;59.364;18.016;2022-09-20T03:42:31;2.35;;;1.13;;
28028;SDS011;15345;59.364;18.016;2022-09-20T03:46:50;3.65;;;0.98;;
28028;SDS011;15345;59.364;18.016;2022-09-20T03:55:13;1.58;;;1.35;;
28028;SDS011;15345;59.364;18.016;2022-09-20T03:58:05;2.13;;;0.88;;
28028;SDS011;15345;59.364;18.016;2022-09-20T04:10:43;1.13;;;1.00;;
28028;SDS011;15345;59.364;18.016;2022-09-20T04:16:54;1.38;;;0.93;;
28028;SDS011;15345;59.364;18.016;2022-09-20T04:19:38;1.73;;;0.90;;
28028;SDS011;15345;59.364;18.016;2022-09-20T04:21:05;2.08;;;1.17;;
28028;SDS011;15345;59.364;18.016;2022-09-20T04:22:26;1.95;;;0.90;;
28028;SDS011;15345;59.364;18.016;2022-09-20T04:23:52;1.40;;;0.98;;
28028;SDS011;15345;59.364;18.016;2022-09-20T04:25:18;2.60;;;0.95;;
28028;SDS011;15345;59.364;18.016;2022-09-20T04:26:39;1.10;;;1.00;;
28028;SDS011;15345;59.364;18.016;2022-09-20T04:28:05;1.13;;;1.05;;
28028;SDS011;15345;59.364;18.016;2022-09-20T04:30:53;0.77;;;0.70;;
28028;SDS011;15345;59.364;18.016;2022-09-20T04:33:40;1.70;;;0.80;;
28028;SDS011;15345;59.364;18.016;2022-09-20T04:35:05;0.90;;;0.90;;
28028;SDS011;15345;59.364;18.016;2022-09-20T04:36:55;0.77;;;0.77;;
28028;SDS011;15345;59.364;18.016;2022-09-20T04:38:20;0.93;;;0.90;;
28028;SDS011;15345;59.364;18.016;2022-09-20T04:39:42;0.95;;;0.82;;
28028;SDS011;15345;59.364;18.016;2022-09-20T04:50:03;1.85;;;1.05;;
28028;SDS011;15345;59.364;18.016;2022-09-20T04:51:43;2.88;;;1.05;;
28028;SDS011;15345;59.364;18.016;2022-09-20T04:56:00;1.55;;;0.90;;
28028;SDS011;15345;59.364;18.016;2022-09-20T04:59:37;1.13;;;1.02;;
28028;SDS011;15345;59.364;18.016;2022-09-20T05:11:40;1.25;;;0.90;;
28028;SDS011;15345;59.364;18.016;2022-09-20T05:13:09;2.55;;;0.80;;
28028;SDS011;15345;59.364;18.016;2022-09-20T05:17:22;1.45;;;1.00;;
28028;SDS011;15345;59.364;18.016;2022-09-20T05:20:10;3.03;;;0.98;;
28028;SDS011;15345;59.364;18.016;2022-09-20T05:22:20;2.25;;;0.70;;
28028;SDS011;15345;59.364;18.016;2022-09-20T05:26:18;1.77;;;0.85;;
28028;SDS011;15345;59.364;18.016;2022-09-20T05:29:31;0.90;;;0.77;;
28028;SDS011;15345;59.364;18.016;2022-09-20T05:33:03;3.72;;;1.02;;
28028;SDS011;15345;59.364;18.016;2022-09-20T05:34:32;9.13;;;1.42;;
28028;SDS011;15345;59.364;18.016;2022-09-20T05:38:50;3.15;;;0.80;;
28028;SDS011;15345;59.364;18.016;2022-09-20T05:40:17;1.95;;;0.85;;
28028;SDS011;15345;59.364;18.016;2022-09-20T05:41:46;4.47;;;0.65;;
28028;SDS011;15345;59.364;18.016;2022-09-20T05:43:12;1.95;;;0.93;;
28028;SDS011;15345;59.364;18.016;2022-09-20T05:44:43;2.17;;;0.77;;
28028;SDS011;15345;59.364;18.016;2022-09-20T05:47:26;2.38;;;0.80;;
28028;SDS011;15345;59.364;18.016;2022-09-20T05:51:32;0.70;;;0.60;;
28028;SDS011;15345;59.364;18.016;2022-09-20T05:55:53;0.98;;;0.40;;
28028;SDS011;15345;59.364;18.016;2022-09-20T05:57:32;0.98;;;0.70;;
28028;SDS011;15345;59.364;18.016;2022-09-20T06:00:13;1.20;;;0.60;;
28028;SDS011;15345;59.364;18.016;2022-09-20T06:01:41;1.13;;;0.50;;
28028;SDS011;15345;59.364;18.016;2022-09-20T06:03:09;1.02;;;0.77;;
28028;SDS011;15345;59.364;18.016;2022-09-20T06:04:41;0.88;;;0.75;;
28028;SDS011;15345;59.364;18.016;2022-09-20T06:07:32;1.13;;;0.82;;
28028;SDS011;15345;59.364;18.016;2022-09-20T06:09:43;1.58;;;0.50;;
28028;SDS011;15345;59.364;18.016;2022-09-20T06:10:42;0.65;;;0.65;;
28028;SDS011;15345;59.364;18.016;2022-09-20T06:13:36;5.70;;;0.82;;
28028;SDS011;15345;59.364;18.016;2022-09-20T06:16:24;2.47;;;0.52;;
28028;SDS011;15345;59.364;18.016;2022-09-20T06:17:53;1.63;;;0.73;;
28028;SDS011;15345;59.364;18.016;2022-09-20T06:20:45;0.60;;;0.50;;
28028;SDS011;15345;59.364;18.016;2022-09-20T06:22:27;0.93;;;0.52;;
28028;SDS011;15345;59.364;18.016;2022-09-20T06:23:47;2.83;;;0.60;;
28028;SDS011;15345;59.364;18.016;2022-09-20T06:26:25;1.40;;;0.63;;
28028;SDS011;15345;59.364;18.016;2022-09-20T06:27:50;3.38;;;0.68;;
28028;SDS011;15345;59.364;18.016;2022-09-20T06:29:10;3.00;;;0.70;;
28028;SDS011;15345;59.364;18.016;2022-09-20T06:30:41;2.53;;;0.73;;
28028;SDS011;15345;59.364;18.016;2022-09-20T06:32:01;1.23;;;0.70;;
28028;SDS011;15345;59.364;18.016;2022-09-20T06:33:21;2.85;;;0.70;;
28028;SDS011;15345;59.364;18.016;2022-09-20T06:34:41;1.58;;;0.50;;
28028;SDS011;15345;59.364;18.016;2022-09-20T06:36:06;1.88;;;0.68;;
28028;SDS011;15345;59.364;18.016;2022-09-20T06:37:49;3.00;;;0.60;;
28028;SDS011;15345;59.364;18.016;2022-09-20T06:41:14;1.60;;;0.52;;
28028;SDS011;15345;59.364;18.016;2022-09-20T06:42:46;1.60;;;0.50;;
28028;SDS011;15345;59.364;18.016;2022-09-20T06:44:05;2.17;;;0.77;;
28028;SDS011;15345;59.364;18.016;2022-09-20T06:45:24;1.33;;;0.47;;
28028;SDS011;15345;59.364;18.016;2022-09-20T06:46:43;0.50;;;0.50;;
28028;SDS011;15345;59.364;18.016;2022-09-20T06:48:02;1.77;;;0.57;;
28028;SDS011;15345;59.364;18.016;2022-09-20T06:49:21;1.95;;;0.40;;
28028;SDS011;15345;59.364;18.016;2022-09-20T06:50:41;1.40;;;0.73;;
28028;SDS011;15345;59.364;18.016;2022-09-20T06:52:13;2.13;;;0.80;;
28028;SDS011;15345;59.364;18.016;2022-09-20T06:53:33;2.60;;;0.90;;
28028;SDS011;15345;59.364;18.016;2022-09-20T06:54:53;0.73;;;0.40;;
28028;SDS011;15345;59.364;18.016;2022-09-20T06:56:17;1.92;;;0.50;;
28028;SDS011;15345;59.364;18.016;2022-09-20T06:57:37;0.63;;;0.50;;
28028;SDS011;15345;59.364;18.016;2022-09-20T06:58:56;2.58;;;0.70;;
28028;SDS011;15345;59.364;18.016;2022-09-20T07:00:15;1.33;;;0.50;;
28028;SDS011;15345;59.364;18.016;2022-09-20T07:01:34;1.17;;;0.40;;
28028;SDS011;15345;59.364;18.016;2022-09-20T07:02:54;1.80;;;0.40;;
28028;SDS011;15345;59.364;18.016;2022-09-20T07:04:14;0.90;;;0.40;;
28028;SDS011;15345;59.364;18.016;2022-09-20T07:05:33;0.85;;;0.52;;
28028;SDS011;15345;59.364;18.016;2022-09-20T07:06:58;0.40;;;0.40;;
28028;SDS011;15345;59.364;18.016;2022-09-20T07:08:16;1.75;;;0.40;;
28028;SDS011;15345;59.364;18.016;2022-09-20T07:09:35;1.02;;;0.40;;
28028;SDS011;15345;59.364;18.016;2022-09-20T07:10:54;2.92;;;0.43;;
28028;SDS011;15345;59.364;18.016;2022-09-20T07:12:13;1.70;;;0.47;;
28028;SDS011;15345;59.364;18.016;2022-09-20T07:13:32;1.30;;;0.75;;
28028;SDS011;15345;59.364;18.016;2022-09-20T07:14:54;2.35;;;0.40;;
28028;SDS011;15345;59.364;18.016;2022-09-20T07:16:13;0.73;;;0.30;;
28028;SDS011;15345;59.364;18.016;2022-09-20T07:17:32;2.47;;;0.85;;
28028;SDS011;15345;59.364;18.016;2022-09-20T07:18:52;3.55;;;0.43;;
28028;SDS011;15345;59.364;18.016;2022-09-20T07:20:11;3.38;;;0.68;;
28028;SDS011;15345;59.364;18.016;2022-09-20T07:21:31;3.03;;;0.60;;
28028;SDS011;15345;59.364;18.016;2022-09-20T07:22:50;2.03;;;0.40;;
28028;SDS011;15345;59.364;18.016;2022-09-20T07:24:08;3.28;;;0.40;;
28028;SDS011;15345;59.364;18.016;2022-09-20T07:25:29;1.55;;;0.50;;
28028;SDS011;15345;59.364;18.016;2022-09-20T07:27:00;1.17;;;0.43;;
28028;SDS011;15345;59.364;18.016;2022-09-20T07:28:20;1.02;;;0.40;;
28028;SDS011;15345;59.364;18.016;2022-09-20T07:29:39;1.83;;;0.40;;
28028;SDS011;15345;59.364;18.016;2022-09-20T07:30:58;0.55;;;0.32;;
28028;SDS011;15345;59.364;18.016;2022-09-20T07:32:17;0.90;;;0.40;;
28028;SDS011;15345;59.364;18.016;2022-09-20T07:33:36;1.23;;;0.60;;
28028;SDS011;15345;59.364;18.016;2022-09-20T07:34:55;3.60;;;0.80;;
28028;SDS011;15345;59.364;18.016;2022-09-20T07:36:14;1.27;;;0.52;;
28028;SDS011;15345;59.364;18.016;2022-09-20T07:37:33;3.72;;;0.52;;
28028;SDS011;15345;59.364;18.016;2022-09-20T07:38:52;4.22;;;0.50;;
28028;SDS011;15345;59.364;18.016;2022-09-20T07:40:11;3.28;;;0.82;;
28028;SDS011;15345;59.364;18.016;2022-09-20T07:41:30;3.70;;;0.63;;
28028;SDS011;15345;59.364;18.016;2022-09-20T07:42:49;2.60;;;0.40;;
28028;SDS011;15345;59.364;18.016;2022-09-20T07:44:08;2.35;;;0.40;;
28028;SDS011;15345;59.364;18.016;2022-09-20T07:45:41;4.38;;;1.23;;
28028;SDS011;15345;59.364;18.016;2022-09-20T07:47:00;0.65;;;0.50;;
28028;SDS011;15345;59.364;18.016;2022-09-20T07:48:20;1.23;;;0.60;;
28028;SDS011;15345;59.364;18.016;2022-09-20T07:49:40;1.25;;;0.50;;
28028;SDS011;15345;59.364;18.016;2022-09-20T07:51:09;2.35;;;0.73;;
28028;SDS011;15345;59.364;18.016;2022-09-20T07:52:29;3.75;;;0.68;;
28028;SDS011;15345;59.364;18.016;2022-09-20T07:53:48;2.45;;;0.40;;
28028;SDS011;15345;59.364;18.016;2022-09-20T07:55:11;1.17;;;0.40;;
28028;SDS011;15345;59.364;18.016;2022-09-20T07:56:30;3.00;;;0.50;;
28028;SDS011;15345;59.364;18.016;2022-09-20T07:57:49;1.85;;;0.50;;
28028;SDS011;15345;59.364;18.016;2022-09-20T07:59:08;4.70;;;0.47;;
28028;SDS011;15345;59.364;18.016;2022-09-20T08:00:27;2.08;;;0.45;;
28028;SDS011;15345;59.364;18.016;2022-09-20T08:01:46;4.40;;;0.55;;
28028;SDS011;15345;59.364;18.016;2022-09-20T08:03:05;3.13;;;0.52;;
28028;SDS011;15345;59.364;18.016;2022-09-20T08:04:24;2.58;;;0.57;;
28028;SDS011;15345;59.364;18.016;2022-09-20T08:05:42;2.70;;;0.40;;
28028;SDS011;15345;59.364;18.016;2022-09-20T08:07:02;1.75;;;0.40;;
28028;SDS011;15345;59.364;18.016;2022-09-20T08:08:21;4.07;;;0.30;;
28028;SDS011;15345;59.364;18.016;2022-09-20T08:09:40;2.60;;;0.60;;
28028;SDS011;15345;59.364;18.016;2022-09-20T08:11:18;0.85;;;0.40;;
28028;SDS011;15345;59.364;18.016;2022-09-20T08:12:37;0.88;;;0.30;;
28028;SDS011;15345;59.364;18.016;2022-09-20T08:13:57;1.50;;;0.60;;
28028;SDS011;15345;59.364;18.016;2022-09-20T08:15:17;5.15;;;0.40;;
28028;SDS011;15345;59.364;18.016;2022-09-20T08:16:37;0.93;;;0.50;;
28028;SDS011;15345;59.364;18.016;2022-09-20T08:17:56;1.63;;;0.30;;
28028;SDS011;15345;59.364;18.016;2022-09-20T08:19:19;2.08;;;0.47;;
28028;SDS011;15345;59.364;18.016;2022-09-20T08:20:39;0.32;;;0.30;;
28028;SDS011;15345;59.364;18.016;2022-09-20T08:21:58;0.55;;;0.17;;
28028;SDS011;15345;59.364;18.016;2022-09-20T08:23:16;0.77;;;0.20;;
28028;SDS011;15345;59.364;18.016;2022-09-20T08:24:35;0.75;;;0.30;;
28028;SDS011;15345;59.364;18.016;2022-09-20T08:25:55;0.45;;;0.35;;
28028;SDS011;15345;59.364;18.016;2022-09-20T08:27:14;4.80;;;0.40;;
28028;SDS011;15345;59.364;18.016;2022-09-20T08:28:33;0.93;;;0.32;;
28028;SDS011;15345;59.364;18.016;2022-09-20T08:29:52;4.53;;;0.47;;
28028;SDS011;15345;59.364;18.016;2022-09-20T08:31:15;1.52;;;0.38;;
28028;SDS011;15345;59.364;18.016;2022-09-20T08:32:37;1.88;;;0.70;;
28028;SDS011;15345;59.364;18.016;2022-09-20T08:33:56;2.15;;;0.40;;
28028;SDS011;15345;59.364;18.016;2022-09-20T08:35:16;0.38;;;0.30;;
28028;SDS011;15345;59.364;18.016;2022-09-20T08:36:37;1.85;;;0.40;;
28028;SDS011;15345;59.364;18.016;2022-09-20T08:37:57;0.85;;;0.30;;
28028;SDS011;15345;59.364;18.016;2022-09-20T08:39:17;0.40;;;0.35;;
28028;SDS011;15345;59.364;18.016;2022-09-20T08:40:36;1.08;;;0.50;;
28028;SDS011;15345;59.364;18.016;2022-09-20T08:43:31;0.35;;;0.30;;
28028;SDS011;15345;59.364;18.016;2022-09-20T08:45:00;1.05;;;0.30;;
28028;SDS011;15345;59.364;18.016;2022-09-20T08:46:22;1.50;;;0.55;;
28028;SDS011;15345;59.364;18.016;2022-09-20T08:47:46;0.90;;;0.22;;
28028;SDS011;15345;59.364;18.016;2022-09-20T08:49:06;2.15;;;0.40;;
28028;SDS011;15345;59.364;18.016;2022-09-20T08:50:26;0.40;;;0.28;;
28028;SDS011;15345;59.364;18.016;2022-09-20T08:51:45;0.82;;;0.40;;
28028;SDS011;15345;59.364;18.016;2022-09-20T08:53:08;0.75;;;0.25;;
28028;SDS011;15345;59.364;18.016;2022-09-20T08:54:31;2.55;;;0.28;;
28028;SDS011;15345;59.364;18.016;2022-09-20T08:55:51;9.07;;;0.75;;
28028;SDS011;15345;59.364;18.016;2022-09-20T08:57:14;2.80;;;0.70;;
28028;SDS011;15345;59.364;18.016;2022-09-20T08:58:34;2.90;;;0.40;;
28028;SDS011;15345;59.364;18.016;2022-09-20T08:59:54;2.60;;;0.30;;
28028;SDS011;15345;59.364;18.016;2022-09-20T09:01:20;1.75;;;0.30;;
28028;SDS011;15345;59.364;18.016;2022-09-20T09:02:40;0.35;;;0.10;;
28028;SDS011;15345;59.364;18.016;2022-09-20T09:04:16;0.20;;;0.20;;
28028;SDS011;15345;59.364;18.016;2022-09-20T09:05:36;0.90;;;0.38;;
28028;SDS011;15345;59.364;18.016;2022-09-20T09:06:56;1.42;;;0.40;;
28028;SDS011;15345;59.364;18.016;2022-09-20T09:08:17;1.23;;;0.50;;
28028;SDS011;15345;59.364;18.016;2022-09-20T09:09:36;1.15;;;0.40;;
28028;SDS011;15345;59.364;18.016;2022-09-20T09:11:03;0.55;;;0.38;;
28028;SDS011;15345;59.364;18.016;2022-09-20T09:12:27;1.13;;;0.30;;
28028;SDS011;15345;59.364;18.016;2022-09-20T09:14:06;2.47;;;0.30;;
28028;SDS011;15345;59.364;18.016;2022-09-20T09:15:50;7.40;;;0.50;;
28028;SDS011;15345;59.364;18.016;2022-09-20T09:17:11;0.73;;;0.43;;
28028;SDS011;15345;59.364;18.016;2022-09-20T09:18:34;1.30;;;0.47;;
28028;SDS011;15345;59.364;18.016;2022-09-20T09:19:57;3.58;;;0.55;;
28028;SDS011;15345;59.364;18.016;2022-09-20T09:22:39;2.28;;;0.40;;
28028;SDS011;15345;59.364;18.016;2022-09-20T09:24:05;0.93;;;0.40;;
28028;SDS011;15345;59.364;18.016;2022-09-20T09:25:30;1.02;;;0.40;;
28028;SDS011;15345;59.364;18.016;2022-09-20T09:27:03;1.33;;;0.47;;
28028;SDS011;15345;59.364;18.016;2022-09-20T09:28:24;6.03;;;0.50;;
28028;SDS011;15345;59.364;18.016;2022-09-20T09:29:51;2.45;;;0.50;;
28028;SDS011;15345;59.364;18.016;2022-09-20T09:31:11;1.88;;;0.47;;
28028;SDS011;15345;59.364;18.016;2022-09-20T09:32:31;1.98;;;0.60;;
28028;SDS011;15345;59.364;18.016;2022-09-20T09:33:50;2.33;;;0.70;;
28028;SDS011;15345;59.364;18.016;2022-09-20T09:35:21;1.73;;;0.50;;
28028;SDS011;15345;59.364;18.016;2022-09-20T09:36:44;0.50;;;0.50;;
28028;SDS011;15345;59.364;18.016;2022-09-20T09:38:03;1.65;;;0.43;;
28028;SDS011;15345;59.364;18.016;2022-09-20T09:39:28;1.17;;;0.32;;
28028;SDS011;15345;59.364;18.016;2022-09-20T09:40:52;1.60;;;0.35;;
28028;SDS011;15345;59.364;18.016;2022-09-20T09:42:20;0.57;;;0.38;;
28028;SDS011;15345;59.364;18.016;2022-09-20T09:43:41;3.20;;;0.60;;
28028;SDS011;15345;59.364;18.016;2022-09-20T09:45:10;3.08;;;0.45;;
28028;SDS011;15345;59.364;18.016;2022-09-20T09:46:30;3.08;;;0.50;;
28028;SDS011;15345;59.364;18.016;2022-09-20T09:47:49;1.95;;;0.30;;
28028;SDS011;15345;59.364;18.016;2022-09-20T09:49:13;1.92;;;0.70;;
28028;SDS011;15345;59.364;18.016;2022-09-20T09:50:33;1.00;;;0.50;;
28028;SDS011;15345;59.364;18.016;2022-09-20T09:52:09;0.77;;;0.50;;
28028;SDS011;15345;59.364;18.016;2022-09-20T09:53:30;1.05;;;0.43;;
28028;SDS011;15345;59.364;18.016;2022-09-20T09:54:52;1.00;;;0.50;;
28028;SDS011;15345;59.364;18.016;2022-09-20T09:57:53;0.47;;;0.47;;
28028;SDS011;15345;59.364;18.016;2022-09-20T10:00:54;0.82;;;0.50;;
28028;SDS011;15345;59.364;18.016;2022-09-20T10:05:36;1.35;;;0.68;;
28028;SDS011;15345;59.364;18.016;2022-09-20T10:13:02;2.05;;;0.73;;
28028;SDS011;15345;59.364;18.016;2022-09-20T10:18:50;1.50;;;0.80;;
28028;SDS011;15345;59.364;18.016;2022-09-20T10:21:49;4.05;;;0.93;;
28028;SDS011;15345;59.364;18.016;2022-09-20T10:26:06;0.98;;;0.60;;
28028;SDS011;15345;59.364;18.016;2022-09-20T10:28:59;3.42;;;0.52;;
28028;SDS011;15345;59.364;18.016;2022-09-20T10:30:24;1.73;;;0.50;;
28028;SDS011;15345;59.364;18.016;2022-09-20T10:33:31;0.60;;;0.20;;
28028;SDS011;15345;59.364;18.016;2022-09-20T10:47:06;0.40;;;0.40;;
28028;SDS011;15345;59.364;18.016;2022-09-20T10:48:30;1.58;;;0.60;;
28028;SDS011;15345;59.364;18.016;2022-09-20T10:51:32;1.50;;;0.80;;
28028;SDS011;15345;59.364;18.016;2022-09-20T10:57:20;3.10;;;0.60;;
28028;SDS011;15345;59.364;18.016;2022-09-20T11:06:01;1.75;;;0.43;;
28028;SDS011;15345;59.364;18.016;2022-09-20T11:07:48;0.80;;;0.57;;
28028;SDS011;15345;59.364;18.016;2022-09-20T11:09:11;0.80;;;0.50;;
28028;SDS011;15345;59.364;18.016;2022-09-20T11:10:48;0.95;;;0.57;;
28028;SDS011;15345;59.364;18.016;2022-09-20T11:15:12;2.22;;;0.40;;
28028;SDS011;15345;59.364;18.016;2022-09-20T11:18:02;1.42;;;0.52;;
28028;SDS011;15345;59.364;18.016;2022-09-20T11:19:30;2.58;;;0.43;;
28028;SDS011;15345;59.364;18.016;2022-09-20T11:21:04;2.13;;;0.40;;
28028;SDS011;15345;59.364;18.016;2022-09-20T11:22:33;0.43;;;0.35;;
28028;SDS011;15345;59.364;18.016;2022-09-20T11:24:04;0.98;;;0.45;;
28028;SDS011;15345;59.364;18.016;2022-09-20T11:25:44;0.60;;;0.35;;
28028;SDS011;15345;59.364;18.016;2022-09-20T11:28:46;4.00;;;0.55;;
28028;SDS011;15345;59.364;18.016;2022-09-20T11:30:13;2.58;;;0.50;;
28028;SDS011;15345;59.364;18.016;2022-09-20T11:31:35;1.60;;;0.73;;
28028;SDS011;15345;59.364;18.016;2022-09-20T11:32:58;3.83;;;0.70;;
28028;SDS011;15345;59.364;18.016;2022-09-20T11:35:54;4.28;;;0.45;;
28028;SDS011;15345;59.364;18.016;2022-09-20T11:37:16;4.78;;;0.75;;
28028;SDS011;15345;59.364;18.016;2022-09-20T11:38:46;0.40;;;0.30;;
28028;SDS011;15345;59.364;18.016;2022-09-20T11:41:36;2.63;;;0.52;;
28028;SDS011;15345;59.364;18.016;2022-09-20T11:42:56;2.22;;;0.80;;
28028;SDS011;15345;59.364;18.016;2022-09-20T11:44:17;0.98;;;0.52;;
28028;SDS011;15345;59.364;18.016;2022-09-20T11:45:37;1.95;;;0.40;;
28028;SDS011;15345;59.364;18.016;2022-09-20T11:46:59;1.13;;;0.40;;
28028;SDS011;15345;59.364;18.016;2022-09-20T11:48:20;2.08;;;0.45;;
28028;SDS011;15345;59.364;18.016;2022-09-20T11:55:54;0.43;;;0.40;;
28028;SDS011;15345;59.364;18.016;2022-09-20T11:57:16;0.50;;;0.40;;
28028;SDS011;15345;59.364;18.016;2022-09-20T11:58:42;1.15;;;0.85;;
28028;SDS011;15345;59.364;18.016;2022-09-20T12:00:06;1.77;;;0.82;;